createdAt,value
2023-04-03T01:14:08.208Z,85.10
2023-04-03T01:14:40.412Z,85.50
2023-04-03T01:15:21.940Z,85.60
2023-04-03T01:15:54.483Z,85.50
2023-04-03T01:16:26.526Z,85.90
2023-04-03T01:16:58.289Z,85.80
2023-04-03T01:17:45.551Z,85.50
2023-04-03T01:18:17.331Z,85.60
2023-04-03T01:20:32.962Z,85.50
2023-04-03T01:21:47.756Z,85.60
2023-04-03T01:41:43.466Z,85.50
2023-04-03T01:42:24.134Z,85.60
2023-04-03T01:42:56.029Z,86.00
2023-04-03T01:43:27.814Z,86.00
2023-04-03T01:43:59.562Z,85.90
2023-04-03T01:45:04.303Z,85.80
2023-04-03T01:45:36.346Z,86.30
2023-04-03T01:46:08.889Z,85.80
2023-04-03T01:46:42.259Z,85.90
2023-04-03T01:47:14.051Z,86.00
2023-04-03T01:47:46.708Z,86.10
2023-04-03T01:48:51.100Z,86.00
2023-04-03T01:49:22.963Z,86.00
2023-04-03T01:49:54.821Z,86.00
2023-04-03T01:50:26.683Z,86.40
2023-04-03T01:50:58.528Z,86.00
2023-04-03T01:51:31.484Z,86.20
2023-04-03T01:52:03.322Z,87.10
2023-04-03T01:52:35.214Z,86.30
2023-04-03T01:53:06.949Z,89.20
2023-04-03T01:54:11.394Z,86.60
2023-04-03T01:54:43.231Z,86.90
2023-04-03T01:55:16.014Z,89.80
2023-04-03T01:55:49.268Z,87.50
2023-04-03T01:56:21.393Z,88.90
2023-04-03T01:56:53.638Z,87.00
2023-04-03T01:57:26.824Z,87.60
2023-04-03T01:57:58.720Z,89.90
2023-04-03T01:58:30.612Z,87.00
2023-04-03T01:59:02.436Z,87.50
2023-04-03T01:59:34.393Z,89.00
2023-04-03T02:00:08.666Z,88.20
2023-04-03T02:00:44.802Z,87.00
2023-04-03T02:01:17.144Z,89.60
2023-04-03T02:01:49.336Z,88.40
2023-04-03T02:02:21.269Z,87.10
2023-04-03T02:02:53.175Z,87.60
2023-04-03T02:03:25.177Z,88.90
2023-04-03T02:03:57.149Z,89.20
2023-04-03T02:04:29.051Z,87.30
2023-04-03T02:05:00.914Z,89.90
2023-04-03T02:05:32.873Z,87.50
2023-04-03T02:06:04.822Z,88.10
2023-04-03T02:06:36.621Z,87.40
2023-04-03T02:07:08.400Z,87.40
2023-04-03T02:07:40.413Z,87.10
2023-04-03T02:08:14.059Z,89.50
2023-04-03T02:08:46.172Z,89.50
2023-04-03T02:09:17.969Z,86.90
2023-04-03T02:09:49.766Z,90.00
2023-04-03T02:10:21.632Z,89.90
2023-04-03T02:10:53.501Z,88.70
2023-04-03T02:11:25.373Z,90.10
2023-04-03T02:11:58.225Z,87.90
2023-04-03T02:12:30.195Z,89.90
2023-04-03T02:13:02.148Z,87.80
2023-04-03T02:15:10.900Z,87.10
2023-04-03T02:15:43.032Z,87.10
2023-04-03T02:16:14.905Z,87.10
2023-04-03T02:16:47.222Z,87.10
2023-04-03T02:17:19.470Z,87.40
2023-04-03T02:17:51.306Z,87.40
2023-04-03T02:18:56.165Z,86.90
2023-04-03T02:19:27.916Z,86.90
2023-04-03T02:19:59.702Z,86.60
2023-04-03T02:20:31.482Z,86.50
2023-04-03T02:21:03.318Z,86.70
2023-04-03T02:21:35.082Z,86.70
2023-04-03T02:22:06.879Z,86.70
2023-04-03T02:22:38.856Z,86.70
2023-04-03T02:23:11.404Z,86.70
2023-04-03T02:23:43.240Z,86.60
2023-04-03T02:24:47.288Z,86.30
2023-04-03T02:25:19.396Z,86.30
2023-04-03T02:25:51.268Z,86.50
2023-04-03T02:26:23.092Z,86.50
2023-04-03T02:26:54.888Z,86.60
2023-04-03T02:27:59.376Z,86.60
2023-04-03T02:28:31.150Z,86.90
2023-04-03T02:29:03.659Z,86.90
2023-04-03T02:29:35.493Z,87.10
2023-04-03T02:30:07.838Z,89.40
2023-04-03T02:30:39.994Z,87.90
2023-04-03T02:31:12.240Z,87.10
2023-04-03T02:31:46.042Z,87.00
2023-04-03T02:32:17.843Z,87.30
2023-04-03T02:32:50.074Z,87.30
2023-04-03T02:33:21.938Z,87.30
2023-04-03T02:33:54.189Z,87.30
2023-04-03T02:34:26.304Z,87.10
2023-04-03T02:34:59.213Z,89.30
2023-04-03T02:35:31.001Z,87.40
2023-04-03T02:36:06.732Z,87.50
2023-04-03T02:36:39.123Z,87.40
2023-04-03T02:37:13.781Z,87.30
2023-04-03T02:37:45.908Z,88.10
2023-04-03T02:38:17.623Z,87.30
2023-04-03T02:38:49.414Z,88.00
2023-04-03T02:39:21.290Z,87.40
2023-04-03T02:39:53.436Z,87.50
2023-04-03T02:40:25.416Z,87.40
2023-04-03T02:41:09.505Z,89.50
2023-04-03T02:41:41.303Z,87.20
2023-04-03T02:42:21.206Z,87.20
2023-04-03T02:42:52.953Z,87.50
2023-04-03T02:43:25.513Z,87.30
2023-04-03T02:43:57.331Z,87.40
2023-04-03T02:44:29.126Z,87.40
2023-04-03T02:45:03.811Z,87.70
2023-04-03T02:45:37.967Z,87.60
2023-04-03T02:46:09.957Z,87.60
2023-04-03T02:46:42.086Z,87.60
2023-04-03T02:47:13.858Z,87.70
2023-04-03T02:47:45.746Z,87.60
2023-04-03T02:48:17.747Z,87.80
2023-04-03T02:48:49.801Z,87.80
2023-04-03T02:49:21.725Z,87.70
2023-04-03T02:49:53.712Z,87.60
2023-04-03T02:50:25.703Z,87.60
2023-04-03T02:51:29.851Z,87.60
2023-04-03T02:52:01.697Z,87.40
2023-04-03T02:52:33.687Z,87.40
2023-04-03T02:53:05.827Z,87.60
2023-04-03T02:53:38.291Z,87.40
2023-04-03T02:54:16.443Z,87.30
2023-04-03T02:54:52.478Z,87.60
2023-04-03T02:55:24.298Z,87.60
2023-04-03T02:55:58.940Z,87.60
2023-04-03T02:56:31.050Z,87.60
2023-04-03T02:57:02.993Z,87.60
2023-04-03T02:57:34.895Z,87.70
2023-04-03T02:58:08.637Z,87.80
2023-04-03T02:58:41.553Z,87.80
2023-04-03T02:59:14.090Z,87.60
2023-04-03T02:59:46.485Z,87.60
2023-04-03T03:00:18.897Z,87.50
2023-04-03T03:00:50.647Z,87.50
2023-04-03T03:01:22.424Z,87.60
2023-04-03T03:01:54.390Z,87.60
2023-04-03T03:02:58.583Z,87.50
2023-04-03T03:03:30.420Z,87.40
2023-04-03T03:04:02.719Z,87.50
2023-04-03T03:04:34.655Z,87.30
2023-04-03T03:05:06.939Z,87.20
2023-04-03T03:05:38.764Z,87.60
2023-04-03T03:06:17.073Z,87.60
2023-04-03T03:06:49.071Z,87.50
2023-04-03T03:07:21.032Z,87.50
2023-04-03T03:07:52.819Z,87.60
2023-04-03T03:08:24.617Z,87.70
2023-04-03T03:08:56.437Z,87.70
2023-04-03T03:09:28.261Z,87.90
2023-04-03T03:10:32.429Z,87.50
2023-04-03T03:11:04.951Z,87.70
2023-04-03T03:11:36.721Z,87.90
2023-04-03T03:12:08.500Z,87.90
2023-04-03T03:12:41.439Z,87.80
2023-04-03T03:13:13.237Z,87.90
2023-04-03T03:13:46.396Z,87.70
2023-04-03T03:14:18.185Z,87.60
2023-04-03T03:14:49.963Z,87.70
2023-04-03T03:15:22.222Z,87.70
2023-04-03T03:15:54.120Z,88.00
2023-04-03T03:16:26.012Z,87.90
2023-04-03T03:16:57.929Z,87.70
2023-04-03T03:17:29.689Z,87.60
2023-04-03T03:18:01.482Z,87.70
2023-04-03T03:18:34.001Z,87.70
2023-04-03T03:19:05.750Z,87.60
2023-04-03T03:19:37.502Z,87.60
2023-04-03T03:20:09.919Z,87.60
2023-04-03T03:20:41.839Z,87.60
2023-04-03T03:21:13.863Z,87.70
2023-04-03T03:21:45.735Z,87.80
2023-04-03T03:22:18.118Z,87.70
2023-04-03T03:22:49.876Z,87.60
2023-04-03T03:23:23.281Z,87.70
2023-04-03T03:23:55.331Z,87.90
2023-04-03T03:24:27.081Z,90.20
2023-04-03T03:24:59.197Z,87.90
2023-04-03T03:26:06.840Z,87.50
2023-04-03T03:26:39.956Z,87.60
2023-04-03T03:27:13.035Z,87.70
2023-04-03T03:28:17.054Z,87.20
2023-04-03T03:29:53.662Z,87.40
2023-04-03T03:30:59.507Z,87.00
2023-04-03T03:32:35.840Z,87.00
2023-04-03T03:33:07.679Z,87.00
2023-04-03T03:34:12.739Z,87.10
2023-04-03T03:36:53.469Z,87.20
2023-04-03T03:37:25.388Z,87.20
2023-04-03T03:37:57.214Z,87.30
2023-04-03T03:39:01.314Z,87.40
2023-04-03T03:39:33.237Z,87.60
2023-04-03T03:40:05.402Z,87.70
2023-04-03T03:40:37.698Z,87.80
2023-04-03T03:41:41.864Z,87.70
2023-04-03T03:42:45.781Z,87.40
2023-04-03T03:43:17.856Z,87.40
2023-04-03T03:43:49.812Z,87.60
2023-04-03T03:44:55.201Z,87.40
2023-04-03T03:45:27.076Z,87.50
2023-04-03T03:46:32.571Z,87.40
2023-04-03T04:26:27.839Z,87.30
2023-04-03T09:32:26.763Z,91.70
2023-04-03T10:05:40.685Z,91.80
2023-04-03T10:15:32.129Z,91.80
2023-04-03T10:17:33.026Z,91.90
2023-04-03T10:19:02.954Z,91.90
2023-04-03T10:23:25.463Z,92.00
2023-04-03T10:30:37.714Z,92.20
2023-04-03T10:31:42.549Z,92.20
2023-04-03T10:32:29.287Z,92.30
2023-04-03T10:33:18.118Z,92.50
2023-04-03T10:34:26.845Z,92.60
2023-04-03T10:35:16.290Z,92.70
2023-04-03T10:35:49.144Z,92.90
2023-04-03T10:36:29.956Z,92.80
2023-04-03T10:37:25.799Z,92.80
2023-04-03T10:38:04.558Z,92.80
2023-04-03T10:38:50.515Z,92.70
2023-04-03T10:39:32.145Z,92.80
2023-04-03T10:40:16.608Z,92.70
2023-04-03T10:41:08.157Z,92.70
2023-04-03T10:42:16.743Z,92.80
2023-04-03T10:43:09.885Z,92.90
2023-04-03T10:43:41.547Z,92.90
2023-04-03T10:44:51.910Z,92.80
2023-04-03T10:45:56.723Z,93.10
2023-04-03T10:46:50.793Z,93.00
2023-04-03T10:47:39.386Z,93.30
2023-04-03T10:48:50.145Z,93.30
2023-04-03T10:49:59.147Z,93.10
2023-04-03T10:51:05.608Z,93.30
2023-04-03T10:51:48.477Z,93.20
2023-04-03T10:52:44.944Z,92.90
2023-04-03T10:53:35.888Z,93.00
2023-04-03T10:54:17.016Z,93.00
2023-04-03T10:55:10.170Z,93.00
2023-04-03T11:03:48.342Z,92.10
2023-04-03T11:05:51.455Z,92.20
2023-04-03T11:06:27.583Z,92.30
2023-04-03T11:07:05.677Z,92.30
2023-04-03T11:07:46.465Z,92.30
2023-04-03T11:08:39.406Z,92.30
2023-04-03T11:09:21.445Z,92.60
2023-04-03T11:10:10.867Z,93.20
2023-04-03T11:10:50.625Z,92.60
2023-04-03T11:11:28.220Z,92.80
2023-04-03T11:12:18.603Z,93.40
2023-04-03T11:13:05.432Z,92.90
2023-04-03T11:13:44.137Z,92.90
2023-04-03T11:14:29.772Z,93.80
2023-04-03T11:15:04.028Z,92.80
2023-04-03T11:15:36.211Z,92.90
2023-04-03T11:16:09.474Z,92.00
2023-04-03T11:16:54.014Z,93.40
2023-04-03T11:17:45.298Z,92.80
2023-04-03T11:18:45.874Z,92.80
2023-04-03T11:19:37.383Z,92.90
2023-04-03T11:20:21.910Z,94.10
2023-04-03T11:21:28.730Z,92.70
2023-04-03T11:22:25.652Z,93.10
2023-04-03T11:23:19.598Z,93.00
2023-04-03T11:23:54.687Z,92.90
2023-04-03T11:24:30.774Z,93.40
2023-04-03T11:25:20.968Z,92.90
2023-04-03T11:26:00.660Z,92.90
2023-04-03T11:26:39.664Z,93.80
2023-04-03T11:27:23.475Z,92.90
2023-04-03T11:27:59.380Z,92.90
2023-04-03T11:28:31.396Z,93.90
2023-04-03T11:29:11.253Z,93.00
2023-04-03T11:29:47.361Z,93.70
2023-04-03T11:30:34.303Z,92.80
2023-04-03T11:31:55.232Z,92.80
2023-04-03T11:33:17.392Z,92.80
2023-04-03T11:34:09.042Z,92.80
2023-04-03T11:34:48.772Z,92.80
2023-04-03T11:35:22.555Z,92.80
2023-04-03T11:36:09.705Z,93.60
2023-04-03T11:36:52.843Z,92.80
2023-04-03T11:37:39.609Z,92.90
2023-04-03T11:38:28.081Z,93.70
2023-04-03T11:39:11.145Z,92.80
2023-04-03T11:39:54.794Z,92.90
2023-04-03T11:40:38.755Z,92.80
2023-04-03T11:41:12.585Z,92.70
2023-04-03T11:41:44.618Z,93.30
2023-04-03T11:42:27.298Z,92.60
2023-04-03T11:43:21.372Z,92.60
2023-04-03T11:44:27.807Z,92.60
2023-04-03T11:45:27.644Z,92.60
2023-04-03T11:46:06.128Z,92.90
2023-04-03T11:46:58.708Z,92.70
2023-04-03T11:47:49.896Z,92.70
2023-04-03T11:48:32.599Z,92.80
2023-04-03T11:49:04.568Z,92.70
2023-04-03T11:49:54.851Z,92.50
2023-04-03T11:50:35.455Z,92.60
2023-04-03T11:51:13.344Z,92.70
2023-04-03T11:51:45.600Z,93.30
2023-04-03T11:52:41.446Z,92.60
2023-04-03T11:53:14.302Z,92.50
2023-04-03T11:53:46.577Z,93.70
2023-04-03T11:54:56.910Z,93.00
2023-04-03T11:55:31.729Z,92.70
2023-04-03T11:56:25.769Z,92.70
2023-04-03T11:56:57.626Z,92.60
2023-04-03T11:57:47.325Z,92.60
2023-04-03T11:58:34.566Z,92.90
2023-04-03T11:59:15.246Z,92.50
2023-04-03T11:59:47.107Z,92.60
2023-04-03T12:00:46.404Z,92.60
2023-04-03T12:01:50.029Z,92.60
2023-04-03T12:02:51.278Z,92.50
2023-04-03T12:03:26.578Z,92.80
2023-04-03T12:04:14.921Z,92.60
2023-04-03T12:05:25.418Z,92.40
2023-04-03T12:06:14.436Z,92.40
2023-04-03T12:06:49.819Z,92.40
2023-04-03T12:07:21.704Z,92.60
2023-04-03T12:08:35.422Z,93.00
2023-04-03T12:09:55.867Z,92.30
2023-04-03T12:10:32.682Z,92.30
2023-04-03T12:11:13.336Z,93.10
2023-04-03T12:11:45.268Z,92.60
2023-04-03T12:26:52.286Z,91.70
2023-04-03T12:27:35.713Z,92.00
2023-04-03T20:20:06.479Z,82.20
2023-04-03T20:20:42.063Z,82.30
2023-04-03T20:21:14.041Z,82.70
2023-04-03T20:21:45.948Z,84.10
2023-04-03T20:22:17.870Z,84.30
2023-04-03T20:22:49.852Z,84.30
2023-04-03T20:23:22.381Z,84.60
2023-04-03T20:23:56.832Z,84.00
2023-04-03T20:24:29.387Z,84.80
2023-04-03T20:25:06.301Z,85.40
2023-04-03T20:25:54.473Z,83.80
2023-04-03T20:26:37.339Z,84.60
2023-04-03T20:27:09.109Z,84.60
2023-04-03T20:27:41.100Z,84.20
2023-04-03T20:28:15.658Z,84.20
2023-04-03T20:28:47.484Z,83.80
2023-04-03T20:29:19.420Z,84.50
2023-04-03T20:29:51.360Z,84.20
2023-04-03T20:30:23.100Z,85.30
2023-04-03T20:30:55.666Z,84.30
2023-04-03T20:31:28.455Z,84.60
2023-04-03T20:32:00.452Z,84.90
2023-04-03T20:32:32.340Z,86.20
2023-04-03T20:33:04.848Z,86.60
2023-04-03T20:33:37.535Z,84.40
2023-04-03T20:34:09.497Z,84.50
2023-04-03T20:34:41.554Z,83.70
2023-04-03T20:35:15.339Z,85.70
2023-04-03T20:35:47.963Z,84.90
2023-04-03T20:36:21.639Z,85.20
2023-04-03T20:36:53.684Z,85.20
2023-04-03T20:37:26.148Z,85.50
2023-04-03T20:37:58.776Z,85.80
2023-04-03T20:38:30.582Z,85.70
2023-04-03T20:39:02.744Z,85.30
2023-04-03T20:39:35.128Z,85.30
2023-04-03T20:40:09.115Z,84.80
2023-04-03T20:40:41.187Z,84.80
2023-04-03T20:41:13.445Z,85.10
2023-04-03T20:41:45.248Z,84.60
2023-04-03T20:42:17.085Z,84.80
2023-04-03T20:42:51.596Z,84.70
2023-04-03T20:43:23.716Z,84.80
2023-04-03T20:43:55.625Z,86.80
2023-04-03T20:44:27.988Z,84.90
2023-04-03T20:44:59.759Z,86.00
2023-04-03T20:45:33.382Z,85.10
2023-04-03T20:46:05.272Z,85.50
2023-04-03T20:46:51.381Z,85.10
2023-04-03T20:47:25.291Z,85.90
2023-04-03T20:47:57.250Z,85.20
2023-04-03T20:48:31.189Z,85.20
2023-04-03T20:49:02.961Z,85.50
2023-04-03T20:49:35.884Z,85.70
2023-04-03T20:50:08.247Z,85.40
2023-04-03T20:50:41.192Z,85.60
2023-04-03T20:51:16.500Z,87.20
2023-04-03T20:51:51.769Z,85.60
2023-04-03T20:52:23.630Z,85.50
2023-04-03T20:52:55.994Z,85.60
2023-04-03T20:53:28.286Z,87.70
2023-04-03T20:54:00.060Z,86.60
2023-04-03T20:54:32.516Z,87.70
2023-04-03T20:55:07.601Z,85.70
2023-04-03T20:55:39.508Z,85.80
2023-04-03T20:56:11.876Z,85.80
2023-04-03T20:56:44.273Z,85.80
2023-04-03T20:57:16.050Z,85.80
2023-04-03T20:57:54.332Z,87.10
2023-04-03T20:58:29.655Z,86.00
2023-04-03T20:59:04.659Z,86.00
2023-04-03T20:59:39.112Z,87.90
2023-04-03T21:00:13.848Z,86.00
2023-04-03T21:00:45.655Z,86.00
2023-04-03T21:01:22.906Z,86.60
2023-04-03T21:01:54.819Z,86.40
2023-04-03T21:02:26.599Z,86.20
2023-04-03T21:02:59.682Z,86.20
2023-04-03T21:03:31.561Z,86.80
2023-04-03T21:04:15.709Z,88.00
2023-04-03T21:04:54.145Z,86.10
2023-04-03T21:05:28.525Z,86.50
2023-04-03T21:06:00.334Z,86.10
2023-04-03T21:07:09.439Z,86.10
2023-04-03T21:08:18.241Z,86.00
2023-04-03T21:09:27.298Z,86.00
2023-04-03T21:10:35.925Z,86.00
2023-04-03T21:11:44.664Z,86.20
2023-04-03T21:12:56.365Z,86.10
2023-04-03T21:14:06.156Z,86.10
2023-04-03T21:15:15.654Z,86.20
2023-04-03T21:15:47.971Z,86.10
2023-04-03T21:16:20.083Z,85.30
2023-04-03T21:16:51.790Z,86.90
2023-04-03T21:17:23.550Z,87.80
2023-04-03T21:18:10.072Z,86.10
2023-04-03T21:18:56.383Z,86.10
2023-04-03T21:19:28.375Z,86.80
2023-04-03T21:20:00.386Z,87.30
2023-04-03T21:20:32.350Z,86.30
2023-04-03T21:21:05.424Z,88.00
2023-04-03T21:21:37.582Z,86.20
2023-04-03T21:22:09.883Z,87.60
2023-04-03T21:22:44.656Z,86.10
2023-04-03T21:23:17.097Z,86.10
2023-04-03T21:23:50.640Z,88.10
2023-04-03T21:24:23.226Z,86.30
2023-04-03T21:24:56.583Z,86.20
2023-04-03T21:25:28.679Z,86.10
2023-04-03T21:26:01.297Z,86.00
2023-04-03T21:26:34.369Z,87.30
2023-04-03T21:27:06.464Z,87.70
2023-04-03T21:27:38.543Z,86.10
2023-04-03T21:28:10.399Z,87.00
2023-04-03T21:28:42.724Z,85.60
2023-04-03T21:29:15.462Z,86.20
2023-04-03T21:29:47.457Z,86.10
2023-04-03T21:30:19.212Z,86.70
2023-04-03T21:30:51.068Z,86.70
2023-04-03T21:31:23.569Z,87.00
2023-04-03T21:31:57.753Z,86.70
2023-04-03T21:32:30.535Z,86.60
2023-04-03T21:33:02.554Z,87.00
2023-04-03T21:33:34.417Z,85.90
2023-04-03T21:34:06.604Z,87.20
2023-04-03T21:34:39.094Z,87.90
2023-04-03T21:35:10.984Z,85.90
2023-04-03T21:35:42.738Z,86.00
2023-04-03T21:36:15.279Z,86.00
2023-04-03T21:36:50.016Z,86.90
2023-04-03T21:37:21.931Z,86.00
2023-04-03T21:37:53.776Z,86.10
2023-04-03T21:38:28.669Z,85.80
2023-04-03T21:39:00.530Z,85.80
2023-04-03T21:39:33.016Z,85.80
2023-04-03T21:40:05.673Z,86.30
2023-04-03T21:40:37.431Z,85.80
2023-04-03T21:41:09.184Z,86.00
2023-04-03T21:41:41.057Z,87.00
2023-04-03T21:42:13.152Z,85.70
2023-04-03T21:42:44.903Z,85.80
2023-04-03T21:43:16.894Z,85.80
2023-04-03T21:43:48.643Z,85.60
2023-04-03T21:44:21.345Z,86.70
2023-04-03T21:44:53.118Z,85.80
2023-04-03T21:45:24.906Z,85.30
2023-04-03T21:45:58.559Z,86.10
2023-04-03T21:46:30.617Z,86.40
2023-04-03T21:47:02.488Z,85.90
2023-04-03T21:47:38.254Z,86.00
2023-04-03T21:48:10.212Z,85.70
2023-04-03T21:48:42.023Z,87.00
2023-04-03T21:49:14.077Z,86.60
2023-04-03T21:49:47.550Z,85.60
2023-04-03T21:50:19.336Z,85.50
2023-04-03T21:50:54.181Z,85.70
2023-04-03T21:51:27.757Z,85.30
2023-04-03T21:51:59.517Z,85.50
2023-04-03T21:52:31.618Z,87.50
2023-04-03T21:53:03.777Z,85.50
2023-04-03T21:53:36.062Z,86.60
2023-04-03T21:54:08.598Z,85.50
2023-04-03T21:54:40.342Z,87.20
2023-04-03T21:55:12.447Z,85.60
2023-04-03T21:55:54.293Z,85.70
2023-04-03T21:56:26.196Z,85.50
2023-04-03T21:56:58.103Z,86.30
2023-04-03T21:57:30.553Z,87.10
2023-04-03T21:58:02.391Z,85.50
2023-04-03T21:58:34.787Z,85.40
2023-04-03T21:59:06.771Z,85.50
2023-04-03T21:59:39.236Z,85.60
2023-04-03T22:00:11.647Z,85.50
2023-04-03T22:00:43.740Z,85.50
2023-04-03T22:01:16.745Z,85.20
2023-04-03T22:01:48.816Z,85.40
2023-04-03T22:02:20.948Z,86.70
2023-04-03T22:03:00.514Z,85.40
2023-04-03T22:03:44.461Z,85.60
2023-04-03T22:04:16.427Z,85.40
2023-04-03T22:04:48.212Z,85.50
2023-04-03T22:05:20.218Z,86.00
2023-04-03T22:05:52.203Z,85.30
2023-04-03T22:06:24.238Z,85.40
2023-04-03T22:06:59.521Z,87.10
2023-04-03T22:07:31.497Z,87.10
2023-04-03T22:08:04.141Z,85.50
2023-04-03T22:08:36.416Z,85.30
2023-04-03T22:09:08.285Z,85.40
2023-04-03T22:09:40.196Z,85.40
2023-04-03T22:10:12.619Z,86.70
2023-04-03T22:10:45.009Z,85.40
2023-04-03T22:11:16.897Z,85.50
2023-04-03T22:11:49.047Z,85.60
2023-04-03T22:12:20.855Z,87.10
2023-04-03T22:12:52.795Z,86.40
2023-04-03T22:13:24.548Z,85.70
2023-04-03T22:13:56.623Z,86.10
2023-04-03T22:14:28.495Z,86.60
2023-04-03T22:15:01.631Z,85.50
2023-04-03T22:15:43.415Z,86.40
2023-04-03T22:16:15.724Z,85.60
2023-04-03T22:16:47.630Z,87.60
2023-04-03T22:17:19.468Z,86.70
2023-04-03T22:17:51.374Z,85.80
2023-04-03T22:18:23.653Z,86.80
2023-04-03T22:18:59.484Z,86.50
2023-04-03T22:19:31.237Z,86.30
2023-04-03T22:20:03.498Z,86.30
2023-04-03T22:20:35.590Z,87.20
2023-04-03T22:21:10.210Z,86.00
2023-04-03T22:21:43.416Z,86.20
2023-04-03T22:22:15.244Z,85.60
2023-04-03T22:22:50.639Z,86.70
2023-04-03T22:23:22.674Z,85.70
2023-04-03T22:23:54.747Z,86.90
2023-04-03T22:24:27.342Z,87.40
2023-04-03T22:24:59.131Z,86.20
2023-04-03T22:25:31.072Z,85.60
2023-04-03T22:26:08.673Z,85.70
2023-04-03T22:26:43.938Z,85.70
2023-04-03T22:27:15.771Z,87.10
2023-04-03T22:27:47.507Z,87.10
2023-04-03T22:28:20.612Z,85.70
2023-04-03T22:28:52.383Z,85.90
2023-04-03T22:29:24.273Z,86.00
2023-04-03T22:29:56.433Z,85.70
2023-04-03T22:30:28.205Z,85.70
2023-04-03T22:31:11.676Z,85.50
2023-04-03T22:31:43.618Z,85.70
2023-04-03T22:32:15.937Z,85.50
2023-04-03T22:32:47.703Z,85.40
2023-04-03T22:33:19.521Z,85.40
2023-04-03T22:33:51.239Z,86.60
2023-04-03T22:34:24.482Z,87.10
2023-04-03T22:34:56.764Z,85.40
2023-04-03T22:35:29.327Z,86.80
2023-04-03T22:36:01.148Z,85.60
2023-04-03T22:36:33.116Z,86.90
2023-04-03T22:37:04.865Z,86.70
2023-04-03T22:37:36.639Z,87.20
2023-04-03T22:38:08.381Z,85.50
2023-04-03T22:38:43.400Z,85.80
2023-04-03T22:39:16.403Z,85.40
2023-04-03T22:39:48.245Z,86.00
2023-04-03T22:40:19.978Z,86.40
2023-04-03T22:41:08.101Z,86.20
2023-04-03T22:41:39.940Z,85.70
2023-04-03T22:42:11.699Z,85.50
2023-04-03T22:42:46.512Z,87.20
2023-04-03T22:43:18.599Z,87.20
2023-04-03T22:43:50.726Z,85.30
2023-04-03T22:44:23.078Z,87.00
2023-04-03T22:44:56.873Z,85.20
2023-04-03T22:45:28.766Z,86.20
2023-04-03T22:46:02.257Z,85.40
2023-04-03T22:46:34.077Z,86.10
2023-04-03T22:47:06.052Z,86.10
2023-04-03T22:47:37.916Z,85.50
2023-04-03T22:48:09.796Z,86.70
2023-04-03T22:48:43.281Z,85.40
2023-04-03T22:49:15.230Z,86.00
2023-04-03T22:49:46.960Z,85.30
2023-04-03T22:50:18.668Z,86.40
2023-04-03T22:50:51.533Z,87.10
2023-04-03T22:51:23.256Z,86.50
2023-04-03T22:51:54.992Z,87.40
2023-04-03T22:52:26.707Z,87.30
2023-04-03T22:52:58.469Z,86.50
2023-04-03T22:53:30.351Z,85.70
2023-04-03T22:54:02.231Z,87.40
2023-04-03T22:54:33.988Z,85.00
2023-04-03T22:55:18.612Z,86.50
2023-04-03T22:55:58.666Z,85.40
2023-04-03T22:56:30.632Z,87.80
2023-04-03T22:57:02.998Z,87.40
2023-04-03T22:57:34.825Z,86.20
2023-04-03T22:58:06.643Z,87.40
2023-04-03T22:58:38.910Z,86.30
2023-04-03T22:59:10.882Z,85.40
2023-04-03T22:59:42.654Z,86.10
2023-04-03T23:00:19.524Z,87.90
2023-04-03T23:00:52.804Z,85.50
2023-04-03T23:01:25.199Z,85.50
2023-04-03T23:01:57.576Z,86.90
2023-04-03T23:02:29.350Z,86.50
2023-04-03T23:03:01.807Z,85.10
2023-04-03T23:03:35.374Z,85.60
2023-04-03T23:04:07.144Z,85.50
2023-04-03T23:04:39.020Z,86.60
2023-04-03T23:05:10.767Z,87.00
2023-04-03T23:05:42.483Z,84.90
2023-04-03T23:06:14.181Z,86.60
2023-04-03T23:06:46.031Z,84.90
